sensor_id;sensor_type;location;lat;lon;timestamp;P1;durP1;ratioP1;P2;durP2;ratioP2
43919;SDS011;29578;51.946;5.874;2023-10-19T00:00:47;0.80;;;0.80;;
43919;SDS011;29578;51.946;5.874;2023-10-19T00:03:17;1.00;;;0.77;;
43919;SDS011;29578;51.946;5.874;2023-10-19T00:05:44;1.00;;;0.90;;
43919;SDS011;29578;51.946;5.874;2023-10-19T00:08:13;1.17;;;0.80;;
43919;SDS011;29578;51.946;5.874;2023-10-19T00:10:43;0.80;;;0.80;;
43919;SDS011;29578;51.946;5.874;2023-10-19T00:13:13;0.80;;;0.80;;
43919;SDS011;29578;51.946;5.874;2023-10-19T00:15:42;0.90;;;0.88;;
43919;SDS011;29578;51.946;5.874;2023-10-19T00:18:13;1.55;;;0.90;;
43919;SDS011;29578;51.946;5.874;2023-10-19T00:20:50;1.08;;;0.90;;
43919;SDS011;29578;51.946;5.874;2023-10-19T00:23:25;1.13;;;0.90;;
43919;SDS011;29578;51.946;5.874;2023-10-19T00:25:56;1.27;;;0.95;;
43919;SDS011;29578;51.946;5.874;2023-10-19T00:28:22;1.13;;;0.90;;
43919;SDS011;29578;51.946;5.874;2023-10-19T00:30:50;1.17;;;0.85;;
43919;SDS011;29578;51.946;5.874;2023-10-19T00:33:24;0.75;;;0.73;;
43919;SDS011;29578;51.946;5.874;2023-10-19T00:35:53;0.80;;;0.80;;
43919;SDS011;29578;51.946;5.874;2023-10-19T00:38:38;0.70;;;0.70;;
43919;SDS011;29578;51.946;5.874;2023-10-19T00:41:07;1.45;;;0.93;;
43919;SDS011;29578;51.946;5.874;2023-10-19T00:43:38;0.85;;;0.75;;
43919;SDS011;29578;51.946;5.874;2023-10-19T00:48:49;0.85;;;0.80;;
43919;SDS011;29578;51.946;5.874;2023-10-19T00:51:20;1.00;;;0.90;;
43919;SDS011;29578;51.946;5.874;2023-10-19T00:54:00;1.27;;;0.90;;
43919;SDS011;29578;51.946;5.874;2023-10-19T00:56:34;1.10;;;0.80;;
43919;SDS011;29578;51.946;5.874;2023-10-19T00:59:01;0.82;;;0.70;;
43919;SDS011;29578;51.946;5.874;2023-10-19T01:01:38;1.38;;;1.00;;
43919;SDS011;29578;51.946;5.874;2023-10-19T01:04:08;0.95;;;0.73;;
43919;SDS011;29578;51.946;5.874;2023-10-19T01:06:40;1.13;;;0.90;;
43919;SDS011;29578;51.946;5.874;2023-10-19T01:09:10;1.45;;;0.95;;
43919;SDS011;29578;51.946;5.874;2023-10-19T01:11:41;1.20;;;0.85;;
43919;SDS011;29578;51.946;5.874;2023-10-19T01:14:18;1.08;;;0.90;;
43919;SDS011;29578;51.946;5.874;2023-10-19T01:16:47;1.25;;;0.93;;
43919;SDS011;29578;51.946;5.874;2023-10-19T01:19:14;1.00;;;0.82;;
43919;SDS011;29578;51.946;5.874;2023-10-19T01:21:43;2.42;;;1.23;;
43919;SDS011;29578;51.946;5.874;2023-10-19T01:24:17;0.80;;;0.80;;
43919;SDS011;29578;51.946;5.874;2023-10-19T01:27:06;1.30;;;1.00;;
43919;SDS011;29578;51.946;5.874;2023-10-19T01:29:35;1.98;;;1.27;;
43919;SDS011;29578;51.946;5.874;2023-10-19T01:32:06;1.55;;;1.00;;
43919;SDS011;29578;51.946;5.874;2023-10-19T01:34:34;1.43;;;1.00;;
43919;SDS011;29578;51.946;5.874;2023-10-19T01:37:00;1.65;;;0.95;;
43919;SDS011;29578;51.946;5.874;2023-10-19T01:39:31;1.20;;;0.82;;
43919;SDS011;29578;51.946;5.874;2023-10-19T01:42:00;1.33;;;1.00;;
43919;SDS011;29578;51.946;5.874;2023-10-19T01:44:26;1.48;;;1.05;;
43919;SDS011;29578;51.946;5.874;2023-10-19T01:46:53;1.38;;;1.00;;
43919;SDS011;29578;51.946;5.874;2023-10-19T01:49:18;1.70;;;1.02;;
43919;SDS011;29578;51.946;5.874;2023-10-19T01:51:52;1.55;;;0.80;;
43919;SDS011;29578;51.946;5.874;2023-10-19T01:54:19;1.55;;;1.10;;
43919;SDS011;29578;51.946;5.874;2023-10-19T01:56:50;1.60;;;1.20;;
43919;SDS011;29578;51.946;5.874;2023-10-19T01:59:22;1.58;;;1.10;;
43919;SDS011;29578;51.946;5.874;2023-10-19T02:01:52;1.35;;;1.17;;
43919;SDS011;29578;51.946;5.874;2023-10-19T02:04:20;1.80;;;1.10;;
43919;SDS011;29578;51.946;5.874;2023-10-19T02:06:46;1.40;;;1.00;;
43919;SDS011;29578;51.946;5.874;2023-10-19T02:09:14;1.02;;;0.90;;
43919;SDS011;29578;51.946;5.874;2023-10-19T02:11:54;1.17;;;1.08;;
43919;SDS011;29578;51.946;5.874;2023-10-19T02:14:21;1.90;;;1.23;;
43919;SDS011;29578;51.946;5.874;2023-10-19T02:16:51;1.83;;;1.20;;
43919;SDS011;29578;51.946;5.874;2023-10-19T02:19:18;1.73;;;1.20;;
43919;SDS011;29578;51.946;5.874;2023-10-19T02:21:46;1.70;;;1.20;;
43919;SDS011;29578;51.946;5.874;2023-10-19T02:24:17;1.23;;;1.05;;
43919;SDS011;29578;51.946;5.874;2023-10-19T02:26:43;2.05;;;1.10;;
43919;SDS011;29578;51.946;5.874;2023-10-19T02:29:10;0.80;;;0.80;;
43919;SDS011;29578;51.946;5.874;2023-10-19T02:31:37;1.90;;;1.00;;
43919;SDS011;29578;51.946;5.874;2023-10-19T02:34:05;1.58;;;1.00;;
43919;SDS011;29578;51.946;5.874;2023-10-19T02:36:34;0.70;;;0.70;;
43919;SDS011;29578;51.946;5.874;2023-10-19T02:39:03;1.00;;;0.90;;
43919;SDS011;29578;51.946;5.874;2023-10-19T02:41:35;1.25;;;0.90;;
43919;SDS011;29578;51.946;5.874;2023-10-19T02:44:08;1.70;;;1.10;;
43919;SDS011;29578;51.946;5.874;2023-10-19T02:46:35;1.05;;;0.90;;
43919;SDS011;29578;51.946;5.874;2023-10-19T02:49:04;0.70;;;0.70;;
43919;SDS011;29578;51.946;5.874;2023-10-19T02:51:36;0.82;;;0.65;;
43919;SDS011;29578;51.946;5.874;2023-10-19T02:54:04;1.13;;;0.98;;
43919;SDS011;29578;51.946;5.874;2023-10-19T02:56:32;0.85;;;0.63;;
43919;SDS011;29578;51.946;5.874;2023-10-19T02:59:00;0.93;;;0.70;;
43919;SDS011;29578;51.946;5.874;2023-10-19T03:01:29;1.00;;;0.88;;
43919;SDS011;29578;51.946;5.874;2023-10-19T03:03:56;0.90;;;0.65;;
43919;SDS011;29578;51.946;5.874;2023-10-19T03:06:26;1.00;;;0.85;;
43919;SDS011;29578;51.946;5.874;2023-10-19T03:09:05;0.85;;;0.85;;
43919;SDS011;29578;51.946;5.874;2023-10-19T03:11:39;1.25;;;0.98;;
43919;SDS011;29578;51.946;5.874;2023-10-19T03:14:06;0.80;;;0.70;;
43919;SDS011;29578;51.946;5.874;2023-10-19T03:16:36;1.77;;;1.00;;
43919;SDS011;29578;51.946;5.874;2023-10-19T03:19:02;1.02;;;0.82;;
43919;SDS011;29578;51.946;5.874;2023-10-19T03:21:29;0.70;;;0.70;;
43919;SDS011;29578;51.946;5.874;2023-10-19T03:24:02;1.52;;;0.90;;
43919;SDS011;29578;51.946;5.874;2023-10-19T03:26:30;1.15;;;0.88;;
43919;SDS011;29578;51.946;5.874;2023-10-19T03:28:56;0.77;;;0.70;;
43919;SDS011;29578;51.946;5.874;2023-10-19T03:31:28;1.15;;;0.90;;
43919;SDS011;29578;51.946;5.874;2023-10-19T03:33:54;0.75;;;0.75;;
43919;SDS011;29578;51.946;5.874;2023-10-19T03:36:21;0.95;;;0.85;;
43919;SDS011;29578;51.946;5.874;2023-10-19T03:38:48;1.42;;;0.90;;
43919;SDS011;29578;51.946;5.874;2023-10-19T03:41:16;1.55;;;0.90;;
43919;SDS011;29578;51.946;5.874;2023-10-19T03:43:46;0.55;;;0.50;;
43919;SDS011;29578;51.946;5.874;2023-10-19T03:46:13;0.60;;;0.50;;
43919;SDS011;29578;51.946;5.874;2023-10-19T03:48:47;0.63;;;0.55;;
43919;SDS011;29578;51.946;5.874;2023-10-19T03:51:13;0.70;;;0.50;;
43919;SDS011;29578;51.946;5.874;2023-10-19T03:53:40;0.40;;;0.40;;
43919;SDS011;29578;51.946;5.874;2023-10-19T03:56:11;1.25;;;0.47;;
43919;SDS011;29578;51.946;5.874;2023-10-19T03:58:37;1.77;;;0.47;;
43919;SDS011;29578;51.946;5.874;2023-10-19T04:01:05;0.50;;;0.50;;
43919;SDS011;29578;51.946;5.874;2023-10-19T04:03:32;0.65;;;0.50;;
43919;SDS011;29578;51.946;5.874;2023-10-19T04:05:59;0.50;;;0.50;;
43919;SDS011;29578;51.946;5.874;2023-10-19T04:08:28;0.40;;;0.40;;
43919;SDS011;29578;51.946;5.874;2023-10-19T04:10:59;0.43;;;0.40;;
43919;SDS011;29578;51.946;5.874;2023-10-19T04:13:45;0.45;;;0.45;;
43919;SDS011;29578;51.946;5.874;2023-10-19T04:16:11;0.50;;;0.50;;
43919;SDS011;29578;51.946;5.874;2023-10-19T04:18:37;0.40;;;0.40;;
43919;SDS011;29578;51.946;5.874;2023-10-19T04:21:09;0.70;;;0.70;;
43919;SDS011;29578;51.946;5.874;2023-10-19T04:23:35;0.60;;;0.50;;
43919;SDS011;29578;51.946;5.874;2023-10-19T04:26:01;0.90;;;0.60;;
43919;SDS011;29578;51.946;5.874;2023-10-19T04:28:30;0.70;;;0.70;;
43919;SDS011;29578;51.946;5.874;2023-10-19T04:31:05;0.60;;;0.60;;
43919;SDS011;29578;51.946;5.874;2023-10-19T04:33:31;0.57;;;0.55;;
43919;SDS011;29578;51.946;5.874;2023-10-19T04:35:59;1.02;;;0.70;;
43919;SDS011;29578;51.946;5.874;2023-10-19T04:38:26;0.57;;;0.55;;
43919;SDS011;29578;51.946;5.874;2023-10-19T04:41:02;0.52;;;0.52;;
43919;SDS011;29578;51.946;5.874;2023-10-19T04:43:34;0.57;;;0.57;;
43919;SDS011;29578;51.946;5.874;2023-10-19T04:46:05;0.70;;;0.70;;
43919;SDS011;29578;51.946;5.874;2023-10-19T04:48:36;0.65;;;0.60;;
43919;SDS011;29578;51.946;5.874;2023-10-19T04:51:05;0.70;;;0.60;;
43919;SDS011;29578;51.946;5.874;2023-10-19T04:53:32;0.85;;;0.73;;
43919;SDS011;29578;51.946;5.874;2023-10-19T04:55:58;0.60;;;0.60;;
43919;SDS011;29578;51.946;5.874;2023-10-19T04:58:28;1.33;;;0.70;;
43919;SDS011;29578;51.946;5.874;2023-10-19T05:00:54;0.40;;;0.40;;
43919;SDS011;29578;51.946;5.874;2023-10-19T05:03:20;0.40;;;0.40;;
43919;SDS011;29578;51.946;5.874;2023-10-19T05:05:46;0.47;;;0.47;;
43919;SDS011;29578;51.946;5.874;2023-10-19T05:08:12;0.75;;;0.52;;
43919;SDS011;29578;51.946;5.874;2023-10-19T05:10:38;0.68;;;0.68;;
43919;SDS011;29578;51.946;5.874;2023-10-19T05:13:03;1.10;;;0.70;;
43919;SDS011;29578;51.946;5.874;2023-10-19T05:15:29;1.02;;;0.50;;
43919;SDS011;29578;51.946;5.874;2023-10-19T05:17:55;0.50;;;0.50;;
43919;SDS011;29578;51.946;5.874;2023-10-19T05:20:21;1.40;;;0.60;;
43919;SDS011;29578;51.946;5.874;2023-10-19T05:22:48;0.52;;;0.52;;
43919;SDS011;29578;51.946;5.874;2023-10-19T05:25:14;0.50;;;0.50;;
43919;SDS011;29578;51.946;5.874;2023-10-19T05:27:40;0.55;;;0.52;;
43919;SDS011;29578;51.946;5.874;2023-10-19T05:30:07;1.27;;;0.52;;
43919;SDS011;29578;51.946;5.874;2023-10-19T05:32:35;0.57;;;0.50;;
43919;SDS011;29578;51.946;5.874;2023-10-19T05:35:01;1.15;;;0.55;;
43919;SDS011;29578;51.946;5.874;2023-10-19T05:37:29;0.73;;;0.60;;
43919;SDS011;29578;51.946;5.874;2023-10-19T05:39:55;0.50;;;0.50;;
43919;SDS011;29578;51.946;5.874;2023-10-19T05:42:21;0.50;;;0.47;;
43919;SDS011;29578;51.946;5.874;2023-10-19T05:44:47;0.65;;;0.63;;
43919;SDS011;29578;51.946;5.874;2023-10-19T05:47:13;0.40;;;0.30;;
43919;SDS011;29578;51.946;5.874;2023-10-19T05:49:39;0.50;;;0.40;;
43919;SDS011;29578;51.946;5.874;2023-10-19T05:52:04;0.47;;;0.47;;
43919;SDS011;29578;51.946;5.874;2023-10-19T05:54:30;0.30;;;0.30;;
43919;SDS011;29578;51.946;5.874;2023-10-19T05:56:56;0.60;;;0.50;;
43919;SDS011;29578;51.946;5.874;2023-10-19T05:59:22;1.30;;;0.40;;
43919;SDS011;29578;51.946;5.874;2023-10-19T06:01:51;0.40;;;0.40;;
43919;SDS011;29578;51.946;5.874;2023-10-19T06:04:17;0.50;;;0.50;;
43919;SDS011;29578;51.946;5.874;2023-10-19T06:06:43;0.75;;;0.30;;
43919;SDS011;29578;51.946;5.874;2023-10-19T06:09:09;0.40;;;0.40;;
43919;SDS011;29578;51.946;5.874;2023-10-19T06:11:35;0.50;;;0.50;;
43919;SDS011;29578;51.946;5.874;2023-10-19T06:14:07;0.77;;;0.55;;
43919;SDS011;29578;51.946;5.874;2023-10-19T06:16:33;0.65;;;0.45;;
43919;SDS011;29578;51.946;5.874;2023-10-19T06:18:59;0.40;;;0.40;;
43919;SDS011;29578;51.946;5.874;2023-10-19T06:21:25;0.40;;;0.40;;
43919;SDS011;29578;51.946;5.874;2023-10-19T06:23:51;0.40;;;0.40;;
43919;SDS011;29578;51.946;5.874;2023-10-19T06:26:18;0.35;;;0.35;;
43919;SDS011;29578;51.946;5.874;2023-10-19T06:28:44;0.77;;;0.43;;
43919;SDS011;29578;51.946;5.874;2023-10-19T06:31:10;0.50;;;0.35;;
43919;SDS011;29578;51.946;5.874;2023-10-19T06:33:36;0.40;;;0.40;;
43919;SDS011;29578;51.946;5.874;2023-10-19T06:36:06;0.55;;;0.40;;
43919;SDS011;29578;51.946;5.874;2023-10-19T06:38:32;0.40;;;0.40;;
43919;SDS011;29578;51.946;5.874;2023-10-19T06:40:59;0.80;;;0.45;;
43919;SDS011;29578;51.946;5.874;2023-10-19T06:43:25;1.08;;;0.50;;
43919;SDS011;29578;51.946;5.874;2023-10-19T06:45:54;0.85;;;0.40;;
43919;SDS011;29578;51.946;5.874;2023-10-19T06:48:20;0.85;;;0.40;;
43919;SDS011;29578;51.946;5.874;2023-10-19T06:50:46;0.40;;;0.40;;
43919;SDS011;29578;51.946;5.874;2023-10-19T06:53:12;0.20;;;0.20;;
43919;SDS011;29578;51.946;5.874;2023-10-19T06:55:38;0.82;;;0.45;;
43919;SDS011;29578;51.946;5.874;2023-10-19T06:58:04;0.50;;;0.40;;
43919;SDS011;29578;51.946;5.874;2023-10-19T07:00:30;0.60;;;0.40;;
43919;SDS011;29578;51.946;5.874;2023-10-19T07:02:56;0.88;;;0.50;;
43919;SDS011;29578;51.946;5.874;2023-10-19T07:05:25;0.30;;;0.30;;
43919;SDS011;29578;51.946;5.874;2023-10-19T07:07:55;0.57;;;0.47;;
43919;SDS011;29578;51.946;5.874;2023-10-19T07:10:21;0.35;;;0.35;;
43919;SDS011;29578;51.946;5.874;2023-10-19T07:12:48;0.50;;;0.40;;
43919;SDS011;29578;51.946;5.874;2023-10-19T07:15:17;0.40;;;0.40;;
43919;SDS011;29578;51.946;5.874;2023-10-19T07:17:45;0.68;;;0.57;;
43919;SDS011;29578;51.946;5.874;2023-10-19T07:20:14;0.40;;;0.40;;
43919;SDS011;29578;51.946;5.874;2023-10-19T07:22:51;0.40;;;0.40;;
43919;SDS011;29578;51.946;5.874;2023-10-19T07:25:17;1.20;;;0.50;;
43919;SDS011;29578;51.946;5.874;2023-10-19T07:27:47;0.57;;;0.40;;
43919;SDS011;29578;51.946;5.874;2023-10-19T07:30:13;0.32;;;0.30;;
43919;SDS011;29578;51.946;5.874;2023-10-19T07:32:41;0.35;;;0.35;;
43919;SDS011;29578;51.946;5.874;2023-10-19T07:35:08;0.40;;;0.40;;
43919;SDS011;29578;51.946;5.874;2023-10-19T07:37:33;0.73;;;0.30;;
43919;SDS011;29578;51.946;5.874;2023-10-19T07:40:00;1.65;;;0.30;;
43919;SDS011;29578;51.946;5.874;2023-10-19T07:42:30;0.73;;;0.40;;
43919;SDS011;29578;51.946;5.874;2023-10-19T07:44:58;0.30;;;0.30;;
43919;SDS011;29578;51.946;5.874;2023-10-19T07:47:24;1.40;;;0.40;;
43919;SDS011;29578;51.946;5.874;2023-10-19T07:49:50;0.90;;;0.40;;
43919;SDS011;29578;51.946;5.874;2023-10-19T07:52:17;0.55;;;0.43;;
43919;SDS011;29578;51.946;5.874;2023-10-19T07:54:43;0.45;;;0.45;;
43919;SDS011;29578;51.946;5.874;2023-10-19T07:57:10;0.40;;;0.40;;
43919;SDS011;29578;51.946;5.874;2023-10-19T07:59:37;0.40;;;0.30;;
43919;SDS011;29578;51.946;5.874;2023-10-19T08:02:03;1.80;;;0.52;;
43919;SDS011;29578;51.946;5.874;2023-10-19T08:04:29;0.35;;;0.35;;
43919;SDS011;29578;51.946;5.874;2023-10-19T08:06:56;1.73;;;0.40;;
43919;SDS011;29578;51.946;5.874;2023-10-19T08:09:22;0.55;;;0.30;;
43919;SDS011;29578;51.946;5.874;2023-10-19T08:11:49;0.45;;;0.40;;
43919;SDS011;29578;51.946;5.874;2023-10-19T08:16:49;0.45;;;0.30;;
43919;SDS011;29578;51.946;5.874;2023-10-19T08:19:16;1.50;;;0.47;;
43919;SDS011;29578;51.946;5.874;2023-10-19T08:21:42;0.52;;;0.50;;
43919;SDS011;29578;51.946;5.874;2023-10-19T08:24:07;0.40;;;0.30;;
43919;SDS011;29578;51.946;5.874;2023-10-19T08:26:39;1.35;;;0.38;;
43919;SDS011;29578;51.946;5.874;2023-10-19T08:29:07;1.23;;;0.57;;
43919;SDS011;29578;51.946;5.874;2023-10-19T08:31:39;1.00;;;0.45;;
43919;SDS011;29578;51.946;5.874;2023-10-19T08:34:05;2.08;;;0.50;;
43919;SDS011;29578;51.946;5.874;2023-10-19T08:36:31;0.85;;;0.30;;
43919;SDS011;29578;51.946;5.874;2023-10-19T08:38:57;0.40;;;0.40;;
43919;SDS011;29578;51.946;5.874;2023-10-19T08:41:23;0.63;;;0.57;;
43919;SDS011;29578;51.946;5.874;2023-10-19T08:43:49;0.75;;;0.40;;
43919;SDS011;29578;51.946;5.874;2023-10-19T08:46:16;1.00;;;0.38;;
43919;SDS011;29578;51.946;5.874;2023-10-19T08:48:42;0.20;;;0.20;;
43919;SDS011;29578;51.946;5.874;2023-10-19T08:51:08;0.35;;;0.35;;
43919;SDS011;29578;51.946;5.874;2023-10-19T08:53:38;0.47;;;0.40;;
43919;SDS011;29578;51.946;5.874;2023-10-19T08:56:06;0.75;;;0.47;;
43919;SDS011;29578;51.946;5.874;2023-10-19T08:58:33;0.40;;;0.30;;
43919;SDS011;29578;51.946;5.874;2023-10-19T09:00:59;0.60;;;0.40;;
43919;SDS011;29578;51.946;5.874;2023-10-19T09:03:32;0.43;;;0.30;;
43919;SDS011;29578;51.946;5.874;2023-10-19T09:06:02;0.30;;;0.30;;
43919;SDS011;29578;51.946;5.874;2023-10-19T09:08:37;0.47;;;0.30;;
43919;SDS011;29578;51.946;5.874;2023-10-19T09:11:07;0.20;;;0.20;;
43919;SDS011;29578;51.946;5.874;2023-10-19T09:13:44;1.38;;;0.35;;
43919;SDS011;29578;51.946;5.874;2023-10-19T09:16:14;0.20;;;0.20;;
43919;SDS011;29578;51.946;5.874;2023-10-19T09:18:40;0.20;;;0.20;;
43919;SDS011;29578;51.946;5.874;2023-10-19T09:21:07;0.40;;;0.40;;
43919;SDS011;29578;51.946;5.874;2023-10-19T09:23:33;0.68;;;0.50;;
43919;SDS011;29578;51.946;5.874;2023-10-19T09:26:00;0.60;;;0.30;;
43919;SDS011;29578;51.946;5.874;2023-10-19T09:28:30;0.20;;;0.20;;
43919;SDS011;29578;51.946;5.874;2023-10-19T09:30:59;0.60;;;0.40;;
43919;SDS011;29578;51.946;5.874;2023-10-19T09:33:26;0.30;;;0.30;;
43919;SDS011;29578;51.946;5.874;2023-10-19T09:35:52;0.95;;;0.38;;
43919;SDS011;29578;51.946;5.874;2023-10-19T09:38:21;0.43;;;0.30;;
43919;SDS011;29578;51.946;5.874;2023-10-19T09:40:49;0.30;;;0.30;;
43919;SDS011;29578;51.946;5.874;2023-10-19T09:43:15;1.17;;;0.50;;
43919;SDS011;29578;51.946;5.874;2023-10-19T09:45:49;0.50;;;0.50;;
43919;SDS011;29578;51.946;5.874;2023-10-19T09:48:18;0.38;;;0.38;;
43919;SDS011;29578;51.946;5.874;2023-10-19T09:50:47;0.63;;;0.30;;
43919;SDS011;29578;51.946;5.874;2023-10-19T09:53:19;0.68;;;0.40;;
43919;SDS011;29578;51.946;5.874;2023-10-19T09:55:48;0.82;;;0.52;;
43919;SDS011;29578;51.946;5.874;2023-10-19T09:58:16;0.40;;;0.40;;
43919;SDS011;29578;51.946;5.874;2023-10-19T10:00:47;0.38;;;0.38;;
43919;SDS011;29578;51.946;5.874;2023-10-19T10:06:14;0.63;;;0.50;;
43919;SDS011;29578;51.946;5.874;2023-10-19T10:08:43;0.30;;;0.30;;
43919;SDS011;29578;51.946;5.874;2023-10-19T10:11:13;0.40;;;0.40;;
43919;SDS011;29578;51.946;5.874;2023-10-19T10:13:42;1.13;;;0.55;;
43919;SDS011;29578;51.946;5.874;2023-10-19T10:16:11;1.17;;;0.57;;
43919;SDS011;29578;51.946;5.874;2023-10-19T10:18:40;0.70;;;0.50;;
43919;SDS011;29578;51.946;5.874;2023-10-19T10:21:10;0.55;;;0.50;;
43919;SDS011;29578;51.946;5.874;2023-10-19T10:26:18;0.68;;;0.60;;
43919;SDS011;29578;51.946;5.874;2023-10-19T10:28:45;0.57;;;0.47;;
43919;SDS011;29578;51.946;5.874;2023-10-19T10:31:16;0.98;;;0.60;;
43919;SDS011;29578;51.946;5.874;2023-10-19T10:33:49;1.30;;;0.70;;
43919;SDS011;29578;51.946;5.874;2023-10-19T10:36:17;1.25;;;0.50;;
43919;SDS011;29578;51.946;5.874;2023-10-19T10:38:44;0.65;;;0.40;;
43919;SDS011;29578;51.946;5.874;2023-10-19T10:41:10;2.25;;;0.70;;
43919;SDS011;29578;51.946;5.874;2023-10-19T10:46:18;0.82;;;0.50;;
43919;SDS011;29578;51.946;5.874;2023-10-19T10:48:46;1.48;;;0.50;;
43919;SDS011;29578;51.946;5.874;2023-10-19T10:51:15;0.45;;;0.45;;
43919;SDS011;29578;51.946;5.874;2023-10-19T10:53:41;0.50;;;0.50;;
43919;SDS011;29578;51.946;5.874;2023-10-19T10:56:07;0.52;;;0.50;;
43919;SDS011;29578;51.946;5.874;2023-10-19T10:58:33;0.95;;;0.50;;
43919;SDS011;29578;51.946;5.874;2023-10-19T11:00:58;1.70;;;0.50;;
43919;SDS011;29578;51.946;5.874;2023-10-19T11:03:25;0.73;;;0.38;;
43919;SDS011;29578;51.946;5.874;2023-10-19T11:05:55;0.80;;;0.40;;
43919;SDS011;29578;51.946;5.874;2023-10-19T11:08:27;0.40;;;0.40;;
43919;SDS011;29578;51.946;5.874;2023-10-19T11:10:53;1.13;;;0.47;;
43919;SDS011;29578;51.946;5.874;2023-10-19T11:13:23;1.52;;;0.70;;
43919;SDS011;29578;51.946;5.874;2023-10-19T11:15:53;0.73;;;0.50;;
43919;SDS011;29578;51.946;5.874;2023-10-19T11:20:55;1.05;;;0.60;;
43919;SDS011;29578;51.946;5.874;2023-10-19T11:26:11;1.08;;;0.50;;
43919;SDS011;29578;51.946;5.874;2023-10-19T11:28:39;0.63;;;0.40;;
43919;SDS011;29578;51.946;5.874;2023-10-19T11:31:13;0.68;;;0.40;;
43919;SDS011;29578;51.946;5.874;2023-10-19T11:33:40;0.75;;;0.50;;
43919;SDS011;29578;51.946;5.874;2023-10-19T11:36:08;0.50;;;0.50;;
43919;SDS011;29578;51.946;5.874;2023-10-19T11:38:37;2.03;;;0.88;;
43919;SDS011;29578;51.946;5.874;2023-10-19T11:41:04;0.73;;;0.47;;
43919;SDS011;29578;51.946;5.874;2023-10-19T11:43:30;0.50;;;0.50;;
43919;SDS011;29578;51.946;5.874;2023-10-19T11:45:56;0.52;;;0.50;;
43919;SDS011;29578;51.946;5.874;2023-10-19T11:48:22;0.32;;;0.30;;
43919;SDS011;29578;51.946;5.874;2023-10-19T11:50:47;0.82;;;0.40;;
43919;SDS011;29578;51.946;5.874;2023-10-19T11:53:13;0.65;;;0.40;;
43919;SDS011;29578;51.946;5.874;2023-10-19T11:55:41;0.28;;;0.28;;
43919;SDS011;29578;51.946;5.874;2023-10-19T11:58:07;0.50;;;0.43;;
43919;SDS011;29578;51.946;5.874;2023-10-19T12:00:37;0.60;;;0.30;;
43919;SDS011;29578;51.946;5.874;2023-10-19T12:03:04;0.95;;;0.50;;
43919;SDS011;29578;51.946;5.874;2023-10-19T12:05:31;1.52;;;0.63;;
43919;SDS011;29578;51.946;5.874;2023-10-19T12:08:02;1.00;;;0.60;;
43919;SDS011;29578;51.946;5.874;2023-10-19T12:10:31;1.17;;;0.50;;
43919;SDS011;29578;51.946;5.874;2023-10-19T12:13:01;1.80;;;0.63;;
43919;SDS011;29578;51.946;5.874;2023-10-19T12:15:27;1.02;;;0.50;;
43919;SDS011;29578;51.946;5.874;2023-10-19T12:17:56;1.08;;;0.50;;
43919;SDS011;29578;51.946;5.874;2023-10-19T12:20:22;1.15;;;0.50;;
43919;SDS011;29578;51.946;5.874;2023-10-19T12:22:48;0.90;;;0.40;;
43919;SDS011;29578;51.946;5.874;2023-10-19T12:25:17;0.90;;;0.50;;
43919;SDS011;29578;51.946;5.874;2023-10-19T12:27:42;1.55;;;0.50;;
43919;SDS011;29578;51.946;5.874;2023-10-19T12:30:08;0.70;;;0.43;;
43919;SDS011;29578;51.946;5.874;2023-10-19T12:32:44;1.00;;;0.47;;
43919;SDS011;29578;51.946;5.874;2023-10-19T12:35:10;1.23;;;0.57;;
43919;SDS011;29578;51.946;5.874;2023-10-19T12:37:37;0.88;;;0.43;;
43919;SDS011;29578;51.946;5.874;2023-10-19T12:40:12;0.65;;;0.50;;
43919;SDS011;29578;51.946;5.874;2023-10-19T12:42:54;0.52;;;0.30;;
43919;SDS011;29578;51.946;5.874;2023-10-19T12:45:21;0.57;;;0.30;;
43919;SDS011;29578;51.946;5.874;2023-10-19T12:47:47;0.30;;;0.30;;
43919;SDS011;29578;51.946;5.874;2023-10-19T12:50:14;0.65;;;0.40;;
43919;SDS011;29578;51.946;5.874;2023-10-19T12:52:41;0.70;;;0.30;;
43919;SDS011;29578;51.946;5.874;2023-10-19T12:55:10;0.57;;;0.43;;
43919;SDS011;29578;51.946;5.874;2023-10-19T12:57:36;1.95;;;0.50;;
43919;SDS011;29578;51.946;5.874;2023-10-19T13:00:03;1.48;;;0.50;;
43919;SDS011;29578;51.946;5.874;2023-10-19T13:02:49;0.82;;;0.40;;
43919;SDS011;29578;51.946;5.874;2023-10-19T13:05:18;0.55;;;0.40;;
43919;SDS011;29578;51.946;5.874;2023-10-19T13:07:45;0.63;;;0.30;;
43919;SDS011;29578;51.946;5.874;2023-10-19T13:10:12;0.70;;;0.30;;
43919;SDS011;29578;51.946;5.874;2023-10-19T13:12:37;0.88;;;0.45;;
43919;SDS011;29578;51.946;5.874;2023-10-19T13:15:04;0.68;;;0.43;;
43919;SDS011;29578;51.946;5.874;2023-10-19T13:17:38;0.47;;;0.45;;
43919;SDS011;29578;51.946;5.874;2023-10-19T13:20:05;1.23;;;0.40;;
43919;SDS011;29578;51.946;5.874;2023-10-19T13:22:43;1.05;;;0.40;;
43919;SDS011;29578;51.946;5.874;2023-10-19T13:25:09;0.80;;;0.40;;
43919;SDS011;29578;51.946;5.874;2023-10-19T13:27:38;1.08;;;0.40;;
43919;SDS011;29578;51.946;5.874;2023-10-19T13:30:07;0.35;;;0.35;;
43919;SDS011;29578;51.946;5.874;2023-10-19T13:32:36;0.30;;;0.30;;
43919;SDS011;29578;51.946;5.874;2023-10-19T13:35:02;0.60;;;0.30;;
43919;SDS011;29578;51.946;5.874;2023-10-19T13:37:29;0.95;;;0.50;;
43919;SDS011;29578;51.946;5.874;2023-10-19T13:39:54;1.90;;;0.52;;
43919;SDS011;29578;51.946;5.874;2023-10-19T13:42:20;0.68;;;0.40;;
43919;SDS011;29578;51.946;5.874;2023-10-19T13:44:47;0.77;;;0.55;;
43919;SDS011;29578;51.946;5.874;2023-10-19T13:47:12;0.70;;;0.50;;
43919;SDS011;29578;51.946;5.874;2023-10-19T13:49:38;0.77;;;0.60;;
43919;SDS011;29578;51.946;5.874;2023-10-19T13:52:04;1.27;;;0.50;;
43919;SDS011;29578;51.946;5.874;2023-10-19T13:54:30;0.70;;;0.50;;
43919;SDS011;29578;51.946;5.874;2023-10-19T13:56:56;0.57;;;0.40;;
43919;SDS011;29578;51.946;5.874;2023-10-19T13:59:21;1.88;;;0.70;;
43919;SDS011;29578;51.946;5.874;2023-10-19T14:01:49;0.90;;;0.60;;
43919;SDS011;29578;51.946;5.874;2023-10-19T14:04:15;0.50;;;0.50;;
43919;SDS011;29578;51.946;5.874;2023-10-19T14:06:41;0.73;;;0.50;;
43919;SDS011;29578;51.946;5.874;2023-10-19T14:09:08;0.60;;;0.60;;
43919;SDS011;29578;51.946;5.874;2023-10-19T14:11:37;1.02;;;0.50;;
43919;SDS011;29578;51.946;5.874;2023-10-19T14:14:03;1.23;;;0.50;;
43919;SDS011;29578;51.946;5.874;2023-10-19T14:16:29;0.50;;;0.50;;
43919;SDS011;29578;51.946;5.874;2023-10-19T14:18:56;0.25;;;0.22;;
43919;SDS011;29578;51.946;5.874;2023-10-19T14:21:22;0.50;;;0.50;;
43919;SDS011;29578;51.946;5.874;2023-10-19T14:23:51;0.60;;;0.60;;
43919;SDS011;29578;51.946;5.874;2023-10-19T14:26:18;0.90;;;0.60;;
43919;SDS011;29578;51.946;5.874;2023-10-19T14:28:44;1.45;;;0.70;;
43919;SDS011;29578;51.946;5.874;2023-10-19T14:31:10;0.55;;;0.55;;
43919;SDS011;29578;51.946;5.874;2023-10-19T14:33:36;1.02;;;0.70;;
43919;SDS011;29578;51.946;5.874;2023-10-19T14:36:03;1.30;;;0.57;;
43919;SDS011;29578;51.946;5.874;2023-10-19T14:38:29;0.73;;;0.55;;
43919;SDS011;29578;51.946;5.874;2023-10-19T14:40:55;1.40;;;0.70;;
43919;SDS011;29578;51.946;5.874;2023-10-19T14:43:21;1.05;;;0.70;;
43919;SDS011;29578;51.946;5.874;2023-10-19T14:45:46;0.75;;;0.50;;
43919;SDS011;29578;51.946;5.874;2023-10-19T14:48:12;1.33;;;0.60;;
43919;SDS011;29578;51.946;5.874;2023-10-19T14:50:39;1.50;;;0.43;;
43919;SDS011;29578;51.946;5.874;2023-10-19T14:53:07;0.57;;;0.50;;
43919;SDS011;29578;51.946;5.874;2023-10-19T14:55:33;0.60;;;0.52;;
43919;SDS011;29578;51.946;5.874;2023-10-19T14:57:59;0.50;;;0.50;;
43919;SDS011;29578;51.946;5.874;2023-10-19T15:00:26;0.68;;;0.40;;
43919;SDS011;29578;51.946;5.874;2023-10-19T15:02:59;1.27;;;0.55;;
43919;SDS011;29578;51.946;5.874;2023-10-19T15:05:27;0.70;;;0.55;;
43919;SDS011;29578;51.946;5.874;2023-10-19T15:07:53;1.65;;;0.70;;
43919;SDS011;29578;51.946;5.874;2023-10-19T15:10:22;0.57;;;0.50;;
43919;SDS011;29578;51.946;5.874;2023-10-19T15:12:50;0.60;;;0.60;;